Terminal Aerodrome Forecast
Issued by NWS

Home | Current Version | Previous Version | Text Only | Print | Product List | Glossary On
Versions: 1 2 3 4 5 6 7 8 9 10 11 12 13 14 15 16 17 18 19 20 21 22 23 24 25
000
FTAK31 PAJN 210737 AAC
TAFAJN
TAF AMD
PAJN 210737Z 2108/2206 00000KT P6SM FEW002 BKN060 OVC090
     FM210900 VRB03KT 5SM BR SCT002 BKN050 OVC100
     FM211700 10005KT 5SM -SN BR BKN025 OVC050
     FM220000 VRB03KT P6SM -SN OVC050=

USA.gov is the U.S. government's official web portal to all federal, state and local government web resources and services.